createdAt,value
2023-03-03T00:01:37.459Z,32.25
2023-03-03T00:04:04.420Z,33.15
2023-03-03T00:06:31.627Z,32.45
2023-03-03T00:08:58.799Z,31.98
2023-03-03T00:11:26.296Z,33.03
2023-03-03T00:13:56.199Z,31.08
2023-03-03T00:16:37.238Z,33.05
2023-03-03T00:19:14.687Z,31.77
2023-03-03T00:21:46.951Z,33.22
2023-03-03T00:24:13.864Z,33.45
2023-03-03T00:26:45.652Z,33.30
2023-03-03T00:29:28.421Z,33.00
2023-03-03T00:32:10.595Z,32.30
2023-03-03T00:34:38.163Z,31.13
2023-03-03T00:37:34.774Z,33.08
2023-03-03T00:40:39.823Z,32.38
2023-03-03T00:43:23.789Z,32.13
2023-03-03T00:45:56.923Z,32.60
2023-03-03T00:48:25.989Z,34.13
2023-03-03T00:50:59.468Z,34.50
2023-03-03T00:53:29.890Z,34.53
2023-03-03T00:55:57.907Z,34.78
2023-03-03T00:58:27.452Z,36.83
2023-03-03T01:00:59.058Z,35.83
2023-03-03T01:03:36.245Z,39.80
2023-03-03T01:06:03.369Z,37.03
2023-03-03T01:08:32.944Z,33.90
2023-03-03T01:11:16.497Z,34.10
2023-03-03T01:13:48.416Z,35.28
2023-03-03T01:16:15.628Z,33.60
2023-03-03T01:18:43.110Z,32.83
2023-03-03T01:21:11.872Z,33.80
2023-03-03T01:23:40.274Z,33.47
2023-03-03T01:26:07.789Z,33.35
2023-03-03T01:28:35.058Z,32.60
2023-03-03T01:31:05.355Z,32.58
2023-03-03T01:33:34.991Z,33.05
2023-03-03T01:36:04.088Z,33.65
2023-03-03T01:38:32.202Z,33.42
2023-03-03T01:41:00.379Z,32.55
2023-03-03T01:43:31.199Z,33.05
2023-03-03T01:45:58.181Z,35.53
2023-03-03T01:48:42.236Z,35.20
2023-03-03T01:51:32.530Z,34.67
2023-03-03T01:54:03.769Z,33.55
2023-03-03T01:56:31.058Z,32.17
2023-03-03T01:59:21.409Z,31.42
2023-03-03T02:01:49.513Z,30.65
2023-03-03T02:04:18.877Z,32.42
2023-03-03T02:06:54.681Z,32.25
2023-03-03T02:09:39.764Z,31.25
2023-03-03T02:12:11.438Z,31.80
2023-03-03T02:14:38.653Z,31.50
2023-03-03T02:17:06.685Z,30.30
2023-03-03T02:20:02.562Z,32.00
2023-03-03T02:22:47.758Z,35.10
2023-03-03T02:25:31.210Z,32.25
2023-03-03T02:27:58.484Z,31.85
2023-03-03T02:30:26.809Z,32.65
2023-03-03T02:32:53.808Z,32.30
2023-03-03T02:35:28.561Z,33.22
2023-03-03T02:38:16.840Z,34.42
2023-03-03T02:41:18.692Z,34.60
2023-03-03T02:44:06.844Z,34.22
2023-03-03T02:46:42.337Z,32.70
2023-03-03T02:49:12.500Z,32.75
2023-03-03T02:51:41.045Z,31.50
2023-03-03T02:54:12.119Z,31.60
2023-03-03T02:56:40.612Z,31.35
2023-03-03T02:59:08.434Z,34.65
2023-03-03T03:01:41.967Z,33.53
2023-03-03T03:04:22.682Z,35.17
2023-03-03T03:06:53.124Z,35.42
2023-03-03T03:09:22.361Z,35.20
2023-03-03T03:11:51.947Z,34.63
2023-03-03T03:14:23.584Z,33.08
2023-03-03T03:16:52.228Z,33.97
2023-03-03T03:19:19.336Z,34.60
2023-03-03T03:21:47.823Z,34.38
2023-03-03T03:24:15.578Z,34.90
2023-03-03T03:26:47.931Z,35.22
2023-03-03T03:29:15.619Z,35.10
2023-03-03T03:31:43.788Z,32.25
2023-03-03T03:34:11.105Z,33.22
2023-03-03T03:36:39.779Z,31.80
2023-03-03T03:39:07.317Z,31.70
2023-03-03T03:41:37.879Z,31.17
2023-03-03T03:44:05.141Z,30.33
2023-03-03T03:46:32.403Z,31.17
2023-03-03T03:48:59.943Z,32.58
2023-03-03T03:51:27.601Z,31.92
2023-03-03T03:53:54.741Z,34.65
2023-03-03T03:56:21.999Z,36.67
2023-03-03T03:58:52.857Z,35.63
2023-03-03T04:01:20.139Z,35.30
2023-03-03T04:03:49.646Z,35.58
2023-03-03T04:06:20.856Z,35.10
2023-03-03T04:08:48.003Z,35.03
2023-03-03T04:11:16.793Z,33.75
2023-03-03T04:13:43.848Z,33.95
2023-03-03T04:16:12.498Z,33.65
2023-03-03T04:18:46.140Z,32.20
2023-03-03T04:21:15.621Z,32.53
2023-03-03T04:23:44.120Z,31.38
2023-03-03T04:26:12.319Z,31.67
2023-03-03T04:28:39.899Z,30.98
2023-03-03T04:31:08.464Z,30.35
2023-03-03T04:33:36.124Z,28.88
2023-03-03T04:36:05.514Z,30.20
2023-03-03T04:38:32.982Z,30.55
2023-03-03T04:41:00.584Z,30.30
2023-03-03T04:43:33.144Z,31.67
2023-03-03T04:46:01.752Z,31.75
2023-03-03T04:48:29.574Z,30.77
2023-03-03T04:50:57.193Z,30.33
2023-03-03T04:53:24.495Z,29.38
2023-03-03T04:55:54.120Z,29.13
2023-03-03T04:58:22.171Z,28.08
2023-03-03T05:00:57.636Z,29.13
2023-03-03T05:03:28.005Z,28.23
2023-03-03T05:05:55.737Z,28.80
2023-03-03T05:08:22.866Z,29.50
2023-03-03T05:10:54.914Z,28.55
2023-03-03T05:13:22.264Z,28.60
2023-03-03T05:15:51.649Z,28.27
2023-03-03T05:18:20.208Z,26.08
2023-03-03T05:20:48.417Z,27.27
2023-03-03T05:23:15.507Z,26.50
2023-03-03T05:25:43.517Z,26.25
2023-03-03T05:28:11.284Z,26.20
2023-03-03T05:30:38.432Z,25.00
2023-03-03T05:33:06.533Z,23.42
2023-03-03T05:35:34.001Z,23.50
2023-03-03T05:38:05.482Z,24.05
2023-03-03T05:40:33.385Z,22.95
2023-03-03T05:43:00.931Z,23.13
2023-03-03T05:45:28.519Z,21.77
2023-03-03T05:47:55.497Z,22.63
2023-03-03T05:50:23.908Z,22.60
2023-03-03T05:52:52.205Z,23.13
2023-03-03T05:55:20.033Z,21.85
2023-03-03T05:57:47.010Z,21.85
2023-03-03T06:00:15.844Z,21.33
2023-03-03T06:02:42.933Z,21.80
2023-03-03T06:05:11.762Z,20.80
2023-03-03T06:07:39.120Z,21.15
2023-03-03T06:10:07.218Z,21.52
2023-03-03T06:12:37.220Z,22.50
2023-03-03T06:15:06.531Z,22.50
2023-03-03T06:17:33.663Z,23.25
2023-03-03T06:20:00.879Z,21.23
2023-03-03T06:22:29.059Z,21.77
2023-03-03T06:24:56.464Z,21.60
2023-03-03T06:27:23.481Z,21.83
2023-03-03T06:29:50.689Z,22.85
2023-03-03T06:32:18.230Z,22.15
2023-03-03T06:34:45.532Z,22.63
2023-03-03T06:37:12.546Z,23.10
2023-03-03T06:39:39.838Z,22.65
2023-03-03T06:42:07.091Z,23.63
2023-03-03T06:44:35.941Z,23.63
2023-03-03T06:47:03.586Z,22.45
2023-03-03T06:49:31.400Z,21.70
2023-03-03T06:52:02.352Z,22.77
2023-03-03T06:54:30.987Z,22.15
2023-03-03T06:57:08.887Z,21.83
2023-03-03T06:59:36.145Z,21.48
2023-03-03T07:02:17.495Z,21.70
2023-03-03T07:04:47.077Z,21.23
2023-03-03T07:07:20.903Z,20.80
2023-03-03T07:09:54.714Z,21.83
2023-03-03T07:12:30.296Z,22.75
2023-03-03T07:15:35.615Z,23.27
2023-03-03T07:18:05.002Z,22.02
2023-03-03T07:20:41.031Z,22.58
2023-03-03T07:23:44.795Z,22.85
2023-03-03T07:26:15.572Z,22.65
2023-03-03T07:28:49.093Z,24.45
2023-03-03T07:31:42.009Z,23.70
2023-03-03T07:34:46.155Z,24.30
2023-03-03T07:37:39.063Z,25.35
2023-03-03T07:40:38.163Z,25.25
2023-03-03T07:43:37.500Z,23.58
2023-03-03T07:46:11.333Z,23.30
2023-03-03T07:48:43.083Z,25.08
2023-03-03T07:51:34.696Z,26.23
2023-03-03T07:54:21.273Z,29.75
2023-03-03T07:56:48.260Z,30.92
2023-03-03T07:59:25.774Z,31.60
2023-03-03T08:02:02.229Z,31.90
2023-03-03T08:04:52.436Z,34.10
2023-03-03T08:07:23.191Z,35.60
2023-03-03T08:09:56.824Z,34.25
2023-03-03T08:12:38.068Z,35.00
2023-03-03T08:15:28.003Z,35.47
2023-03-03T08:17:56.935Z,35.58
2023-03-03T08:20:44.064Z,34.10
2023-03-03T08:23:12.961Z,33.38
2023-03-03T08:25:42.435Z,33.58
2023-03-03T08:28:12.615Z,34.97
2023-03-03T08:30:40.333Z,34.67
2023-03-03T08:33:07.608Z,34.97
2023-03-03T08:35:36.055Z,36.45
2023-03-03T08:38:03.775Z,40.00
2023-03-03T08:40:31.266Z,40.10
2023-03-03T08:42:58.669Z,41.92
2023-03-03T08:45:27.903Z,44.08
2023-03-03T08:47:55.337Z,45.80
2023-03-03T08:50:23.135Z,45.78
2023-03-03T08:52:50.572Z,45.00
2023-03-03T08:55:18.563Z,47.20
2023-03-03T08:57:45.949Z,46.78
2023-03-03T09:00:17.447Z,47.78
2023-03-03T09:02:44.520Z,48.22
2023-03-03T09:05:13.385Z,46.88
2023-03-03T09:07:42.376Z,46.90
2023-03-03T09:10:13.808Z,51.22
2023-03-03T09:12:48.258Z,51.42
2023-03-03T09:15:45.414Z,53.67
2023-03-03T09:18:18.910Z,51.30
2023-03-03T09:20:52.186Z,53.72
2023-03-03T09:23:42.709Z,50.50
2023-03-03T09:26:28.206Z,48.53
2023-03-03T09:29:06.681Z,45.88
2023-03-03T09:31:48.744Z,44.90
2023-03-03T09:34:36.769Z,48.72
2023-03-03T09:37:34.106Z,48.15
2023-03-03T09:40:01.024Z,48.88
2023-03-03T09:42:57.037Z,48.13
2023-03-03T09:45:46.692Z,46.88
2023-03-03T09:48:32.823Z,48.45
2023-03-03T09:51:26.860Z,48.40
2023-03-03T09:54:17.944Z,46.65
2023-03-03T09:57:11.897Z,43.10
2023-03-03T10:00:19.770Z,42.50
2023-03-03T10:03:02.373Z,42.78
2023-03-03T10:05:44.090Z,46.60
2023-03-03T10:08:49.620Z,46.47
2023-03-03T10:11:37.893Z,41.83
2023-03-03T10:14:32.349Z,39.20
2023-03-03T10:17:48.637Z,42.55
2023-03-03T10:21:07.350Z,45.10
2023-03-03T10:23:58.811Z,43.92
2023-03-03T10:27:20.394Z,50.53
2023-03-03T10:30:40.894Z,49.20
2023-03-03T10:34:14.296Z,38.70
2023-03-03T10:37:31.692Z,44.63
2023-03-03T10:40:33.044Z,41.72
2023-03-03T10:43:38.936Z,50.80
2023-03-03T10:46:12.850Z,47.88
2023-03-03T10:48:50.381Z,54.55
2023-03-03T10:51:51.644Z,50.10
2023-03-03T10:55:09.037Z,50.88
2023-03-03T10:58:04.946Z,53.35
2023-03-03T11:00:46.027Z,54.55
2023-03-03T11:03:49.810Z,58.30
2023-03-03T11:06:36.640Z,55.03
2023-03-03T11:09:40.913Z,54.03
2023-03-03T11:12:22.415Z,54.78
2023-03-03T11:15:21.548Z,55.78
2023-03-03T11:18:25.632Z,55.88
2023-03-03T11:21:18.182Z,53.38
2023-03-03T11:23:57.379Z,50.80
2023-03-03T11:26:29.572Z,52.63
2023-03-03T11:29:21.339Z,47.83
2023-03-03T11:32:11.967Z,44.53
2023-03-03T11:35:11.159Z,46.30
2023-03-03T11:38:15.943Z,43.47
2023-03-03T11:40:55.768Z,42.97
2023-03-03T11:43:42.518Z,42.85
2023-03-03T11:46:22.460Z,41.85
2023-03-03T11:49:25.504Z,41.65
2023-03-03T11:55:05.276Z,39.20
2023-03-03T11:57:42.946Z,40.90
2023-03-03T12:00:26.298Z,41.03
2023-03-03T12:03:14.222Z,43.53
2023-03-03T12:06:01.447Z,37.10
2023-03-03T12:08:59.131Z,38.13
2023-03-03T12:11:54.334Z,36.25
2023-03-03T12:14:45.390Z,39.20
2023-03-03T12:17:41.022Z,38.65
2023-03-03T12:20:35.791Z,37.63
2023-03-03T12:23:30.578Z,36.63
2023-03-03T12:26:21.729Z,33.50
2023-03-03T12:29:05.047Z,34.13
2023-03-03T12:32:15.364Z,33.50
2023-03-03T12:35:02.349Z,32.30
2023-03-03T12:37:47.632Z,31.33
2023-03-03T12:40:24.752Z,30.80
2023-03-03T12:43:12.459Z,31.52
2023-03-03T12:46:06.341Z,27.92
2023-03-03T12:48:42.500Z,28.48
2023-03-03T12:51:37.044Z,28.52
2023-03-03T12:54:15.647Z,28.63
2023-03-03T12:57:13.811Z,25.05
2023-03-03T13:00:28.851Z,25.80
2023-03-03T13:03:55.523Z,25.30
2023-03-03T13:06:47.035Z,23.98
2023-03-03T13:09:17.229Z,25.90
2023-03-03T13:12:22.961Z,23.83
2023-03-03T13:15:31.490Z,24.25
2023-03-03T13:18:42.726Z,21.08
2023-03-03T13:21:31.831Z,21.73
2023-03-03T13:24:25.867Z,21.95
2023-03-03T13:27:07.233Z,22.27
2023-03-03T13:29:58.212Z,20.38
2023-03-03T13:32:50.384Z,21.20
2023-03-03T13:35:41.919Z,21.00
2023-03-03T13:38:20.824Z,18.55
2023-03-03T13:41:25.625Z,18.40
2023-03-03T13:44:10.160Z,20.17
2023-03-03T13:47:16.961Z,20.10
2023-03-03T13:50:14.435Z,20.35
2023-03-03T13:53:12.444Z,19.33
2023-03-03T13:55:53.445Z,19.50
2023-03-03T13:59:12.447Z,17.50
2023-03-03T14:01:48.231Z,15.95
2023-03-03T14:04:36.715Z,17.58
2023-03-03T14:07:17.904Z,15.75
2023-03-03T14:10:18.319Z,16.38
2023-03-03T14:13:04.215Z,16.50
2023-03-03T14:15:56.618Z,14.77
2023-03-03T14:18:39.134Z,15.98
2023-03-03T14:21:21.124Z,15.65
2023-03-03T14:24:04.301Z,16.77
2023-03-03T14:26:31.735Z,15.73
2023-03-03T14:29:27.127Z,16.75
2023-03-03T14:32:20.077Z,14.63
2023-03-03T14:34:59.514Z,14.43
2023-03-03T14:37:45.320Z,13.77
2023-03-03T14:40:20.787Z,13.88
2023-03-03T14:42:57.864Z,13.82
2023-03-03T14:45:41.788Z,14.40
2023-03-03T14:48:24.194Z,14.55
2023-03-03T14:51:27.138Z,14.65
2023-03-03T14:53:56.769Z,14.70
2023-03-03T14:56:34.605Z,16.42
2023-03-03T14:59:21.623Z,17.75
2023-03-03T15:02:03.154Z,17.25
2023-03-03T15:04:31.091Z,17.10
2023-03-03T15:06:59.214Z,16.02
2023-03-03T15:09:43.180Z,16.88
2023-03-03T15:12:36.180Z,16.23
2023-03-03T15:15:06.471Z,16.50
2023-03-03T15:17:50.103Z,16.58
2023-03-03T15:20:37.151Z,15.85
2023-03-03T15:23:30.377Z,16.42
2023-03-03T15:26:33.149Z,16.60
2023-03-03T15:29:23.868Z,13.93
2023-03-03T15:32:18.794Z,15.48
2023-03-03T15:35:15.098Z,15.50
2023-03-03T15:38:02.848Z,13.10
2023-03-03T15:40:44.396Z,14.25
2023-03-03T15:43:54.184Z,14.93
2023-03-03T15:46:39.610Z,12.13
2023-03-03T15:49:52.778Z,13.65
2023-03-03T15:52:48.428Z,12.98
2023-03-03T15:55:52.090Z,14.05
2023-03-03T15:58:41.525Z,13.10
2023-03-03T16:01:31.895Z,12.00
2023-03-03T16:04:13.031Z,13.10
2023-03-03T16:07:23.397Z,14.13
2023-03-03T16:10:27.126Z,13.57
2023-03-03T16:13:20.437Z,13.82
2023-03-03T16:18:48.916Z,13.70
2023-03-03T16:21:51.695Z,13.82
2023-03-03T16:25:09.314Z,15.23
2023-03-03T16:28:38.300Z,16.58
2023-03-03T16:31:45.225Z,13.75
2023-03-03T16:34:57.039Z,16.15
2023-03-03T16:37:34.670Z,15.48
2023-03-03T16:40:42.545Z,14.88
2023-03-03T16:44:03.572Z,13.27
2023-03-03T16:46:44.744Z,11.93
2023-03-03T16:49:20.076Z,14.20
2023-03-03T16:52:06.731Z,13.80
2023-03-03T16:54:54.887Z,13.23
2023-03-03T16:57:51.432Z,13.95
2023-03-03T17:00:28.436Z,13.63
2023-03-03T17:03:36.619Z,14.38
2023-03-03T17:06:32.555Z,13.98
2023-03-03T17:09:40.570Z,14.38
2023-03-03T17:13:04.602Z,13.60
2023-03-03T17:16:05.160Z,14.20
2023-03-03T17:19:23.000Z,15.30
2023-03-03T17:22:09.651Z,14.38
2023-03-03T17:25:00.890Z,15.38
2023-03-03T17:27:54.983Z,14.80
2023-03-03T17:31:00.412Z,14.45
2023-03-03T17:33:51.594Z,14.48
2023-03-03T17:36:34.336Z,14.85
2023-03-03T17:39:57.071Z,15.18
2023-03-03T17:43:00.944Z,14.80
2023-03-03T17:45:35.217Z,14.80
2023-03-03T17:48:13.839Z,14.40
2023-03-03T17:51:08.704Z,15.10
2023-03-03T17:54:19.082Z,13.75
2023-03-03T17:57:37.551Z,14.80
2023-03-03T18:00:44.964Z,13.40
2023-03-03T18:03:43.024Z,13.80
2023-03-03T18:06:44.899Z,13.73
2023-03-03T18:09:54.084Z,13.32
2023-03-03T18:13:03.505Z,12.38
2023-03-03T18:15:55.966Z,13.02
2023-03-03T18:19:10.379Z,13.75
2023-03-03T18:22:06.009Z,14.00
2023-03-03T18:24:51.831Z,13.50
2023-03-03T18:27:24.761Z,13.52
2023-03-03T18:30:24.983Z,14.60
2023-03-03T18:32:59.726Z,13.25
2023-03-03T18:35:32.861Z,13.82
2023-03-03T18:38:18.763Z,14.25
2023-03-03T18:41:04.998Z,13.02
2023-03-03T18:43:44.500Z,12.93
2023-03-03T18:46:20.936Z,13.35
2023-03-03T18:48:56.853Z,13.55
2023-03-03T18:51:39.473Z,13.75
2023-03-03T18:54:12.585Z,14.35
2023-03-03T18:57:13.899Z,13.88
2023-03-03T18:59:54.997Z,12.63
2023-03-03T19:02:35.858Z,12.50
2023-03-03T19:05:32.112Z,12.15
2023-03-03T19:08:44.178Z,12.43
2023-03-03T19:11:32.521Z,12.25
2023-03-03T19:14:38.781Z,12.93
2023-03-03T19:17:37.611Z,12.25
2023-03-03T19:20:18.284Z,11.90
2023-03-03T19:22:49.969Z,12.30
2023-03-03T19:25:29.108Z,12.27
2023-03-03T19:28:14.587Z,12.02
2023-03-03T19:31:11.391Z,11.75
2023-03-03T19:34:06.275Z,11.70
2023-03-03T19:36:38.297Z,11.18
2023-03-03T19:39:23.100Z,12.40
2023-03-03T19:42:21.987Z,12.57
2023-03-03T19:45:52.457Z,13.63
2023-03-03T19:48:55.550Z,14.48
2023-03-03T19:51:57.068Z,14.45
2023-03-03T19:54:53.423Z,13.60
2023-03-03T19:58:22.626Z,14.20
2023-03-03T20:01:29.961Z,12.90
2023-03-03T20:04:27.527Z,13.10
2023-03-03T20:07:12.256Z,13.63
2023-03-03T20:10:06.731Z,13.35
2023-03-03T20:12:53.450Z,13.07
2023-03-03T20:15:30.691Z,13.43
2023-03-03T20:18:25.960Z,12.63
2023-03-03T20:21:41.616Z,12.23
2023-03-03T20:24:55.452Z,11.60
2023-03-03T20:27:47.422Z,11.50
2023-03-03T20:30:31.031Z,10.88
2023-03-03T20:33:44.148Z,11.00
2023-03-03T20:36:38.109Z,11.20
2023-03-03T20:39:21.336Z,11.32
2023-03-03T20:42:23.714Z,11.80
2023-03-03T20:45:52.742Z,12.15
2023-03-03T20:49:11.910Z,11.55
2023-03-03T20:52:02.817Z,10.98
2023-03-03T20:55:03.994Z,12.73
2023-03-03T20:57:46.948Z,11.93
2023-03-03T21:00:38.764Z,11.48
2023-03-03T21:03:37.288Z,12.20
2023-03-03T21:06:15.371Z,12.57
2023-03-03T21:08:46.792Z,11.52
2023-03-03T21:11:19.185Z,12.80
2023-03-03T21:13:51.653Z,13.43
2023-03-03T21:16:22.100Z,14.68
2023-03-03T21:19:10.183Z,14.07
2023-03-03T21:21:46.934Z,13.57
2023-03-03T21:24:19.467Z,13.07
2023-03-03T21:27:03.449Z,14.55
2023-03-03T21:29:35.650Z,14.90
2023-03-03T21:32:09.249Z,15.55
2023-03-03T21:34:40.964Z,15.95
2023-03-03T21:37:12.378Z,14.82
2023-03-03T21:39:45.279Z,15.27
2023-03-03T21:42:16.577Z,15.88
2023-03-03T21:44:49.692Z,14.43
2023-03-03T21:47:20.880Z,16.08
2023-03-03T21:49:51.359Z,14.85
2023-03-03T21:52:20.910Z,15.65
2023-03-03T21:54:50.909Z,15.90
2023-03-03T21:57:18.327Z,15.35
2023-03-03T21:59:46.087Z,15.65
2023-03-03T22:02:13.211Z,15.13
2023-03-03T22:04:41.007Z,15.27
2023-03-03T22:07:09.091Z,15.93
2023-03-03T22:09:38.095Z,15.25
2023-03-03T22:12:06.971Z,16.05
2023-03-03T22:14:34.479Z,16.50
2023-03-03T22:17:01.543Z,17.30
2023-03-03T22:19:29.007Z,17.42
2023-03-03T22:21:56.487Z,15.90
2023-03-03T22:24:23.692Z,16.08
2023-03-03T22:26:50.717Z,16.77
2023-03-03T22:29:22.668Z,15.68
2023-03-03T22:31:51.096Z,16.23
2023-03-03T22:34:18.689Z,17.15
2023-03-03T22:36:46.568Z,16.13
2023-03-03T22:39:13.735Z,15.73
2023-03-03T22:41:40.661Z,12.25
2023-03-03T22:44:07.938Z,15.88
2023-03-03T22:46:35.009Z,14.82
2023-03-03T22:49:02.320Z,16.23
2023-03-03T22:51:29.290Z,17.08
2023-03-03T22:53:56.418Z,17.40
2023-03-03T22:56:23.390Z,15.98
2023-03-03T22:58:50.608Z,14.63
2023-03-03T23:01:17.620Z,15.40
2023-03-03T23:03:44.817Z,15.98
2023-03-03T23:06:12.017Z,12.88
2023-03-03T23:08:39.214Z,14.43
2023-03-03T23:11:06.244Z,15.52
2023-03-03T23:13:35.185Z,13.35
2023-03-03T23:16:02.965Z,15.32
2023-03-03T23:18:30.432Z,13.77
2023-03-03T23:20:57.473Z,14.38
2023-03-03T23:23:24.781Z,14.77
2023-03-03T23:25:52.337Z,15.15
2023-03-03T23:28:19.776Z,14.32
2023-03-03T23:30:47.014Z,12.93
2023-03-03T23:33:14.701Z,10.60
2023-03-03T23:35:42.090Z,10.68
2023-03-03T23:38:15.097Z,13.07
2023-03-03T23:40:42.543Z,13.02
2023-03-03T23:43:22.333Z,13.23
2023-03-03T23:45:49.321Z,13.65
2023-03-03T23:48:16.459Z,12.90
2023-03-03T23:50:43.657Z,12.63
2023-03-03T23:53:10.850Z,13.65
2023-03-03T23:55:37.849Z,14.77
2023-03-03T23:58:05.209Z,13.15
